首页
METAR-TAF:

METAR-TAF

机场 :

埃尔迈拉 / 康宁, 紐約州, 美国

纬度: 42-09-23N, 经度: 076-54-10W, 海拔: 291米

当前天气观测

该预报发布于1小时和4分钟前的13:53 UTC
风速3节,风向多变
温度 3°C
湿度 75%
气压 1011 hPa
能見度: 16.1公里
天空无云

METAR: KELM 151353Z VRB03KT 10SM CLR 03/M01 A2985 RMK AO2 SLP117 T00281006

时间: 09:57 (14:57 UTC)

预报

该预报发布于3小时和17分钟前的11:40 UTC
预报有效从15日的 12点(UTC)到 16日的 12点(UTC)
风速5节,风向东转东南
能見度: 10公里
少量云层高于3500英尺
多云层高于20000英尺
从 15日的 1800点(UTC)
风速12节,风向东南
能見度: 10公里
多云层高于2800英尺
阴天层高于18000英尺
从 15日的 2100点(UTC)
风速12节,风向东南,有时为18节阵风
能見度: 10公里
阴天层高于2200英尺
从 16日的 0000点(UTC)
风速12节,风向东南,有时为22节阵风
能見度: 8.0公里
阴天层高于1200英尺
小阵雨
从 16日的 0300点(UTC)
风速10节,风向东南
能見度: 4.8公里
阴天层高于800英尺
小雨, 雪
从 16日的 1000点(UTC)
风速6节,风向多变
能見度: 1.6公里
阴天层高于500英尺
小雪, 轻雾

TAF: KELM 151140Z 1512/1612 12005KT P6SM FEW035 BKN200 FM151800 14012KT P6SM BKN028 OVC180 FM152100 13012G18KT P6SM OVC022 WS020/16038KT FM160000 14012G22KT 5SM -SHRA OVC012 WS020/15040KT FM160300 14010KT 3SM -RASN OVC008 FM161000 VRB06KT 1SM -SN BR OVC005

超过4000个机场的气象观测和天气预报(METAR&TAF报告)。

可查询的气象台以黄色和红色小点在地图上表示。

将鼠标移到小点上方,可查看气象台名称。

然后点击查看天气观测和预报。

如需切换地图:点击带黑十字的绿色按钮放大地图;点击带横线的绿色按钮缩小地图;或者点击绿色箭头查看邻近地区的地图。


METAR-TAF: